Lily Lake, Illinois
Current Conditions -  °F | °C
As of 7:52 AM on Thursday 23 Oct 2014 (Local Time) from KDPA Reporting Station
Haze Haze  
Wind Chill: 32°   Ceiling: Unl
Heat Index: 36°   Visibility: 4mi
Dew Point: 35°   Wind: 5mph
Humidity: 97%   Direction: 180°S
Pressure: 30.21"   Gusts: NA
Location:  41.9502°N, 88.389°W
Report Text: KDPA 231252Z 18004KT 4SM BR CLR 02/02 A3021 RMK AO2 SLP236 T00220017
Loading
Personal Weather Stations






























Interactive Weather Map
Tropical Storm Tracking
New forecast layout! Learn more

10-Day Weather Forecast

Advertisements
Track Severe Weather on mobile